sensor_id;sensor_type;location;lat;lon;timestamp;P1;durP1;ratioP1;P2;durP2;ratioP2
34491;SDS011;20737;49.908;8.126;2022-10-28T00:01:16;27.17;;;11.48;;
34491;SDS011;20737;49.908;8.126;2022-10-28T00:03:44;24.52;;;11.40;;
34491;SDS011;20737;49.908;8.126;2022-10-28T00:06:13;25.63;;;11.93;;
34491;SDS011;20737;49.908;8.126;2022-10-28T00:08:41;28.40;;;12.68;;
34491;SDS011;20737;49.908;8.126;2022-10-28T00:11:10;31.38;;;13.98;;
34491;SDS011;20737;49.908;8.126;2022-10-28T00:13:39;25.42;;;12.85;;
34491;SDS011;20737;49.908;8.126;2022-10-28T00:16:07;24.35;;;12.18;;
34491;SDS011;20737;49.908;8.126;2022-10-28T00:18:36;27.38;;;12.40;;
34491;SDS011;20737;49.908;8.126;2022-10-28T00:21:04;22.13;;;12.20;;
34491;SDS011;20737;49.908;8.126;2022-10-28T00:23:32;23.40;;;11.98;;
34491;SDS011;20737;49.908;8.126;2022-10-28T00:26:02;24.88;;;12.70;;
34491;SDS011;20737;49.908;8.126;2022-10-28T00:28:34;43.22;;;12.65;;
34491;SDS011;20737;49.908;8.126;2022-10-28T00:31:05;19.48;;;10.63;;
34491;SDS011;20737;49.908;8.126;2022-10-28T00:33:33;29.65;;;12.15;;
34491;SDS011;20737;49.908;8.126;2022-10-28T00:36:06;21.90;;;12.15;;
34491;SDS011;20737;49.908;8.126;2022-10-28T00:38:37;19.80;;;11.90;;
34491;SDS011;20737;49.908;8.126;2022-10-28T00:41:04;23.67;;;12.68;;
34491;SDS011;20737;49.908;8.126;2022-10-28T00:43:32;25.00;;;12.52;;
34491;SDS011;20737;49.908;8.126;2022-10-28T00:46:01;19.67;;;11.05;;
34491;SDS011;20737;49.908;8.126;2022-10-28T00:48:29;22.48;;;12.43;;
34491;SDS011;20737;49.908;8.126;2022-10-28T00:50:56;19.52;;;11.52;;
34491;SDS011;20737;49.908;8.126;2022-10-28T00:53:24;18.25;;;11.57;;
34491;SDS011;20737;49.908;8.126;2022-10-28T00:55:54;18.83;;;11.30;;
34491;SDS011;20737;49.908;8.126;2022-10-28T00:58:22;18.45;;;12.27;;
34491;SDS011;20737;49.908;8.126;2022-10-28T01:00:52;18.65;;;11.23;;
34491;SDS011;20737;49.908;8.126;2022-10-28T01:03:19;17.95;;;11.57;;
34491;SDS011;20737;49.908;8.126;2022-10-28T01:05:46;19.25;;;11.48;;
34491;SDS011;20737;49.908;8.126;2022-10-28T01:08:15;23.75;;;12.02;;
34491;SDS011;20737;49.908;8.126;2022-10-28T01:10:58;21.20;;;12.13;;
34491;SDS011;20737;49.908;8.126;2022-10-28T01:13:52;23.55;;;11.98;;
34491;SDS011;20737;49.908;8.126;2022-10-28T01:16:34;22.40;;;12.27;;
34491;SDS011;20737;49.908;8.126;2022-10-28T01:19:24;20.35;;;12.55;;
34491;SDS011;20737;49.908;8.126;2022-10-28T01:22:11;19.73;;;11.13;;
34491;SDS011;20737;49.908;8.126;2022-10-28T01:24:49;15.75;;;10.48;;
34491;SDS011;20737;49.908;8.126;2022-10-28T01:27:45;20.55;;;12.02;;
34491;SDS011;20737;49.908;8.126;2022-10-28T01:30:30;16.92;;;10.07;;
34491;SDS011;20737;49.908;8.126;2022-10-28T01:33:08;17.88;;;11.57;;
34491;SDS011;20737;49.908;8.126;2022-10-28T01:35:41;18.70;;;11.40;;
34491;SDS011;20737;49.908;8.126;2022-10-28T01:38:16;18.67;;;11.10;;
34491;SDS011;20737;49.908;8.126;2022-10-28T01:40:54;19.38;;;11.40;;
34491;SDS011;20737;49.908;8.126;2022-10-28T01:43:31;17.30;;;10.30;;
34491;SDS011;20737;49.908;8.126;2022-10-28T01:46:06;17.52;;;10.98;;
34491;SDS011;20737;49.908;8.126;2022-10-28T01:51:10;16.73;;;10.80;;
34491;SDS011;20737;49.908;8.126;2022-10-28T01:53:41;18.35;;;10.70;;
34491;SDS011;20737;49.908;8.126;2022-10-28T01:56:12;17.45;;;11.15;;
34491;SDS011;20737;49.908;8.126;2022-10-28T01:58:41;18.40;;;11.82;;
34491;SDS011;20737;49.908;8.126;2022-10-28T02:01:09;20.35;;;10.27;;
34491;SDS011;20737;49.908;8.126;2022-10-28T02:03:37;17.30;;;10.63;;
34491;SDS011;20737;49.908;8.126;2022-10-28T02:06:06;18.02;;;11.15;;
34491;SDS011;20737;49.908;8.126;2022-10-28T02:08:47;17.05;;;10.57;;
34491;SDS011;20737;49.908;8.126;2022-10-28T02:11:29;16.48;;;9.73;;
34491;SDS011;20737;49.908;8.126;2022-10-28T02:14:05;16.58;;;10.25;;
34491;SDS011;20737;49.908;8.126;2022-10-28T02:16:42;15.07;;;10.07;;
34491;SDS011;20737;49.908;8.126;2022-10-28T02:19:14;16.48;;;9.07;;
34491;SDS011;20737;49.908;8.126;2022-10-28T02:21:53;15.50;;;10.15;;
34491;SDS011;20737;49.908;8.126;2022-10-28T02:24:31;17.35;;;10.48;;
34491;SDS011;20737;49.908;8.126;2022-10-28T02:27:09;17.27;;;10.93;;
34491;SDS011;20737;49.908;8.126;2022-10-28T02:29:43;17.30;;;10.52;;
34491;SDS011;20737;49.908;8.126;2022-10-28T02:32:14;16.38;;;10.20;;
34491;SDS011;20737;49.908;8.126;2022-10-28T02:34:45;18.40;;;10.52;;
34491;SDS011;20737;49.908;8.126;2022-10-28T02:37:17;18.17;;;10.73;;
34491;SDS011;20737;49.908;8.126;2022-10-28T02:39:49;20.85;;;10.95;;
34491;SDS011;20737;49.908;8.126;2022-10-28T02:42:21;14.82;;;9.93;;
34491;SDS011;20737;49.908;8.126;2022-10-28T02:44:53;18.13;;;11.18;;
34491;SDS011;20737;49.908;8.126;2022-10-28T02:47:25;17.83;;;10.18;;
34491;SDS011;20737;49.908;8.126;2022-10-28T02:49:58;19.40;;;10.25;;
34491;SDS011;20737;49.908;8.126;2022-10-28T02:52:28;17.50;;;10.95;;
34491;SDS011;20737;49.908;8.126;2022-10-28T02:54:58;20.15;;;10.73;;
34491;SDS011;20737;49.908;8.126;2022-10-28T02:57:28;17.52;;;9.93;;
34491;SDS011;20737;49.908;8.126;2022-10-28T02:59:58;16.75;;;11.63;;
34491;SDS011;20737;49.908;8.126;2022-10-28T03:02:26;16.38;;;9.95;;
34491;SDS011;20737;49.908;8.126;2022-10-28T03:04:53;18.50;;;10.68;;
34491;SDS011;20737;49.908;8.126;2022-10-28T03:07:20;16.48;;;11.65;;
34491;SDS011;20737;49.908;8.126;2022-10-28T03:09:48;18.17;;;10.75;;
34491;SDS011;20737;49.908;8.126;2022-10-28T03:12:15;17.65;;;10.10;;
34491;SDS011;20737;49.908;8.126;2022-10-28T03:14:42;17.65;;;10.60;;
34491;SDS011;20737;49.908;8.126;2022-10-28T03:17:09;18.52;;;10.55;;
34491;SDS011;20737;49.908;8.126;2022-10-28T03:19:35;16.42;;;10.05;;
34491;SDS011;20737;49.908;8.126;2022-10-28T03:22:02;18.08;;;10.45;;
34491;SDS011;20737;49.908;8.126;2022-10-28T03:24:29;16.63;;;10.95;;
34491;SDS011;20737;49.908;8.126;2022-10-28T03:26:57;15.88;;;9.15;;
34491;SDS011;20737;49.908;8.126;2022-10-28T03:29:24;15.45;;;9.63;;
34491;SDS011;20737;49.908;8.126;2022-10-28T03:31:50;18.55;;;10.40;;
34491;SDS011;20737;49.908;8.126;2022-10-28T03:34:17;18.25;;;9.70;;
34491;SDS011;20737;49.908;8.126;2022-10-28T03:36:44;16.50;;;10.07;;
34491;SDS011;20737;49.908;8.126;2022-10-28T03:39:11;21.10;;;11.32;;
34491;SDS011;20737;49.908;8.126;2022-10-28T03:41:37;15.93;;;10.15;;
34491;SDS011;20737;49.908;8.126;2022-10-28T03:44:05;17.83;;;10.63;;
34491;SDS011;20737;49.908;8.126;2022-10-28T03:46:32;16.13;;;10.35;;
34491;SDS011;20737;49.908;8.126;2022-10-28T03:48:59;18.38;;;10.73;;
34491;SDS011;20737;49.908;8.126;2022-10-28T03:51:25;21.40;;;11.73;;
34491;SDS011;20737;49.908;8.126;2022-10-28T03:53:52;15.95;;;10.02;;
34491;SDS011;20737;49.908;8.126;2022-10-28T03:56:19;15.23;;;9.48;;
34491;SDS011;20737;49.908;8.126;2022-10-28T03:58:46;14.50;;;10.20;;
34491;SDS011;20737;49.908;8.126;2022-10-28T04:01:14;17.13;;;10.02;;
34491;SDS011;20737;49.908;8.126;2022-10-28T04:03:41;16.13;;;9.95;;
34491;SDS011;20737;49.908;8.126;2022-10-28T04:06:08;18.70;;;10.13;;
34491;SDS011;20737;49.908;8.126;2022-10-28T04:08:34;14.45;;;9.65;;
34491;SDS011;20737;49.908;8.126;2022-10-28T04:11:01;14.90;;;9.93;;
34491;SDS011;20737;49.908;8.126;2022-10-28T04:13:28;17.60;;;10.95;;
34491;SDS011;20737;49.908;8.126;2022-10-28T04:15:55;18.92;;;10.80;;
34491;SDS011;20737;49.908;8.126;2022-10-28T04:18:23;15.63;;;10.00;;
34491;SDS011;20737;49.908;8.126;2022-10-28T04:20:50;17.13;;;9.90;;
34491;SDS011;20737;49.908;8.126;2022-10-28T04:23:16;14.50;;;9.10;;
34491;SDS011;20737;49.908;8.126;2022-10-28T04:25:43;14.85;;;9.57;;
34491;SDS011;20737;49.908;8.126;2022-10-28T04:28:10;17.25;;;10.07;;
34491;SDS011;20737;49.908;8.126;2022-10-28T04:30:37;18.25;;;10.30;;
34491;SDS011;20737;49.908;8.126;2022-10-28T04:33:03;13.70;;;9.40;;
34491;SDS011;20737;49.908;8.126;2022-10-28T04:35:31;14.95;;;9.70;;
34491;SDS011;20737;49.908;8.126;2022-10-28T04:37:58;17.52;;;10.07;;
34491;SDS011;20737;49.908;8.126;2022-10-28T04:40:25;15.80;;;9.77;;
34491;SDS011;20737;49.908;8.126;2022-10-28T04:42:52;16.23;;;9.10;;
34491;SDS011;20737;49.908;8.126;2022-10-28T04:45:18;19.20;;;10.57;;
34491;SDS011;20737;49.908;8.126;2022-10-28T04:47:45;19.40;;;10.73;;
34491;SDS011;20737;49.908;8.126;2022-10-28T04:50:12;21.52;;;10.98;;
34491;SDS011;20737;49.908;8.126;2022-10-28T04:52:40;20.25;;;11.68;;
34491;SDS011;20737;49.908;8.126;2022-10-28T04:55:07;18.23;;;10.82;;
34491;SDS011;20737;49.908;8.126;2022-10-28T04:57:34;18.95;;;11.27;;
34491;SDS011;20737;49.908;8.126;2022-10-28T05:00:01;18.92;;;11.35;;
34491;SDS011;20737;49.908;8.126;2022-10-28T05:02:28;20.00;;;12.02;;
34491;SDS011;20737;49.908;8.126;2022-10-28T05:04:55;27.00;;;10.95;;
34491;SDS011;20737;49.908;8.126;2022-10-28T05:07:24;17.70;;;10.88;;
34491;SDS011;20737;49.908;8.126;2022-10-28T05:09:52;23.23;;;11.02;;
34491;SDS011;20737;49.908;8.126;2022-10-28T05:12:19;23.92;;;12.18;;
34491;SDS011;20737;49.908;8.126;2022-10-28T05:14:46;25.80;;;12.05;;
34491;SDS011;20737;49.908;8.126;2022-10-28T05:17:13;19.38;;;11.02;;
34491;SDS011;20737;49.908;8.126;2022-10-28T05:19:39;20.95;;;11.25;;
34491;SDS011;20737;49.908;8.126;2022-10-28T05:22:09;25.65;;;10.70;;
34491;SDS011;20737;49.908;8.126;2022-10-28T05:24:37;16.30;;;10.35;;
34491;SDS011;20737;49.908;8.126;2022-10-28T05:27:05;14.02;;;9.45;;
34491;SDS011;20737;49.908;8.126;2022-10-28T05:29:31;20.77;;;10.73;;
34491;SDS011;20737;49.908;8.126;2022-10-28T05:31:58;17.90;;;11.05;;
34491;SDS011;20737;49.908;8.126;2022-10-28T05:34:25;16.63;;;10.40;;
34491;SDS011;20737;49.908;8.126;2022-10-28T05:36:52;17.15;;;10.18;;
34491;SDS011;20737;49.908;8.126;2022-10-28T05:39:18;17.00;;;10.32;;
34491;SDS011;20737;49.908;8.126;2022-10-28T05:42:24;15.52;;;9.98;;
34491;SDS011;20737;49.908;8.126;2022-10-28T05:44:50;14.57;;;9.70;;
34491;SDS011;20737;49.908;8.126;2022-10-28T05:47:17;14.48;;;10.30;;
34491;SDS011;20737;49.908;8.126;2022-10-28T05:49:44;15.25;;;9.65;;
34491;SDS011;20737;49.908;8.126;2022-10-28T05:52:11;15.32;;;10.23;;
34491;SDS011;20737;49.908;8.126;2022-10-28T05:54:37;19.92;;;9.38;;
34491;SDS011;20737;49.908;8.126;2022-10-28T05:57:04;16.75;;;9.05;;
34491;SDS011;20737;49.908;8.126;2022-10-28T05:59:32;18.17;;;10.25;;
34491;SDS011;20737;49.908;8.126;2022-10-28T06:01:59;11.32;;;8.73;;
34491;SDS011;20737;49.908;8.126;2022-10-28T06:04:25;15.10;;;9.45;;
34491;SDS011;20737;49.908;8.126;2022-10-28T06:06:53;14.10;;;9.43;;
34491;SDS011;20737;49.908;8.126;2022-10-28T06:09:20;15.70;;;9.90;;
34491;SDS011;20737;49.908;8.126;2022-10-28T06:11:47;15.88;;;9.77;;
34491;SDS011;20737;49.908;8.126;2022-10-28T06:14:14;17.50;;;10.18;;
34491;SDS011;20737;49.908;8.126;2022-10-28T06:16:42;17.17;;;10.43;;
34491;SDS011;20737;49.908;8.126;2022-10-28T06:19:08;16.02;;;9.05;;
34491;SDS011;20737;49.908;8.126;2022-10-28T06:21:35;13.75;;;9.75;;
34491;SDS011;20737;49.908;8.126;2022-10-28T06:24:02;13.77;;;9.80;;
34491;SDS011;20737;49.908;8.126;2022-10-28T06:26:29;15.50;;;9.35;;
34491;SDS011;20737;49.908;8.126;2022-10-28T06:28:55;16.00;;;9.98;;
34491;SDS011;20737;49.908;8.126;2022-10-28T06:31:22;12.75;;;9.27;;
34491;SDS011;20737;49.908;8.126;2022-10-28T06:33:50;14.07;;;9.40;;
34491;SDS011;20737;49.908;8.126;2022-10-28T06:36:17;14.25;;;8.85;;
34491;SDS011;20737;49.908;8.126;2022-10-28T06:38:44;12.82;;;8.88;;
34491;SDS011;20737;49.908;8.126;2022-10-28T06:41:11;11.93;;;8.82;;
34491;SDS011;20737;49.908;8.126;2022-10-28T06:43:38;12.00;;;9.45;;
34491;SDS011;20737;49.908;8.126;2022-10-28T06:46:05;13.45;;;9.38;;
34491;SDS011;20737;49.908;8.126;2022-10-28T06:48:31;10.10;;;8.35;;
34491;SDS011;20737;49.908;8.126;2022-10-28T06:50:59;10.98;;;8.55;;
34491;SDS011;20737;49.908;8.126;2022-10-28T06:53:26;11.15;;;8.30;;
34491;SDS011;20737;49.908;8.126;2022-10-28T06:55:53;11.52;;;8.73;;
34491;SDS011;20737;49.908;8.126;2022-10-28T06:58:21;9.77;;;7.82;;
34491;SDS011;20737;49.908;8.126;2022-10-28T07:00:48;11.45;;;9.18;;
34491;SDS011;20737;49.908;8.126;2022-10-28T07:03:15;11.20;;;8.65;;
34491;SDS011;20737;49.908;8.126;2022-10-28T07:05:43;12.18;;;8.38;;
34491;SDS011;20737;49.908;8.126;2022-10-28T07:08:12;12.75;;;8.60;;
34491;SDS011;20737;49.908;8.126;2022-10-28T07:10:39;11.77;;;9.13;;
34491;SDS011;20737;49.908;8.126;2022-10-28T07:13:06;12.10;;;8.65;;
34491;SDS011;20737;49.908;8.126;2022-10-28T07:15:33;13.25;;;8.48;;
34491;SDS011;20737;49.908;8.126;2022-10-28T07:18:00;12.02;;;8.75;;
34491;SDS011;20737;49.908;8.126;2022-10-28T07:20:26;15.85;;;9.50;;
34491;SDS011;20737;49.908;8.126;2022-10-28T07:22:55;12.82;;;8.85;;
34491;SDS011;20737;49.908;8.126;2022-10-28T07:25:24;13.65;;;9.90;;
34491;SDS011;20737;49.908;8.126;2022-10-28T07:27:51;12.65;;;8.25;;
34491;SDS011;20737;49.908;8.126;2022-10-28T07:30:18;13.32;;;8.88;;
34491;SDS011;20737;49.908;8.126;2022-10-28T07:32:45;13.75;;;9.00;;
34491;SDS011;20737;49.908;8.126;2022-10-28T07:35:13;13.77;;;9.30;;
34491;SDS011;20737;49.908;8.126;2022-10-28T07:37:40;11.40;;;8.48;;
34491;SDS011;20737;49.908;8.126;2022-10-28T07:40:07;11.82;;;8.32;;
34491;SDS011;20737;49.908;8.126;2022-10-28T07:42:35;12.50;;;8.82;;
34491;SDS011;20737;49.908;8.126;2022-10-28T07:45:03;13.15;;;8.88;;
34491;SDS011;20737;49.908;8.126;2022-10-28T07:47:30;11.30;;;8.38;;
34491;SDS011;20737;49.908;8.126;2022-10-28T07:49:57;10.35;;;8.68;;
34491;SDS011;20737;49.908;8.126;2022-10-28T07:52:24;11.82;;;8.68;;
34491;SDS011;20737;49.908;8.126;2022-10-28T07:54:50;11.32;;;8.15;;
34491;SDS011;20737;49.908;8.126;2022-10-28T07:57:17;11.13;;;8.65;;
34491;SDS011;20737;49.908;8.126;2022-10-28T07:59:45;14.43;;;7.95;;
34491;SDS011;20737;49.908;8.126;2022-10-28T08:02:13;15.45;;;9.13;;
34491;SDS011;20737;49.908;8.126;2022-10-28T08:04:42;11.30;;;8.40;;
34491;SDS011;20737;49.908;8.126;2022-10-28T08:07:08;13.15;;;9.07;;
34491;SDS011;20737;49.908;8.126;2022-10-28T08:09:35;15.68;;;9.45;;
34491;SDS011;20737;49.908;8.126;2022-10-28T08:12:02;13.05;;;8.80;;
34491;SDS011;20737;49.908;8.126;2022-10-28T08:14:29;12.30;;;9.20;;
34491;SDS011;20737;49.908;8.126;2022-10-28T08:16:57;11.70;;;9.07;;
34491;SDS011;20737;49.908;8.126;2022-10-28T08:19:24;11.85;;;8.07;;
34491;SDS011;20737;49.908;8.126;2022-10-28T08:21:51;12.93;;;8.68;;
34491;SDS011;20737;49.908;8.126;2022-10-28T08:24:18;9.68;;;8.02;;
34491;SDS011;20737;49.908;8.126;2022-10-28T08:26:45;10.25;;;8.25;;
34491;SDS011;20737;49.908;8.126;2022-10-28T08:29:12;9.60;;;8.10;;
34491;SDS011;20737;49.908;8.126;2022-10-28T08:31:38;8.88;;;7.20;;
34491;SDS011;20737;49.908;8.126;2022-10-28T08:34:07;11.52;;;7.20;;
34491;SDS011;20737;49.908;8.126;2022-10-28T08:36:34;11.98;;;6.63;;
34491;SDS011;20737;49.908;8.126;2022-10-28T08:39:00;7.82;;;6.57;;
34491;SDS011;20737;49.908;8.126;2022-10-28T08:41:29;15.02;;;7.18;;
34491;SDS011;20737;49.908;8.126;2022-10-28T08:47:14;9.05;;;5.78;;
34491;SDS011;20737;49.908;8.126;2022-10-28T08:49:54;7.70;;;5.78;;
34491;SDS011;20737;49.908;8.126;2022-10-28T08:52:25;8.93;;;6.00;;
34491;SDS011;20737;49.908;8.126;2022-10-28T08:54:56;7.25;;;5.78;;
34491;SDS011;20737;49.908;8.126;2022-10-28T08:57:30;10.43;;;6.10;;
34491;SDS011;20737;49.908;8.126;2022-10-28T09:00:01;9.20;;;5.43;;
34491;SDS011;20737;49.908;8.126;2022-10-28T09:02:32;6.55;;;5.85;;
34491;SDS011;20737;49.908;8.126;2022-10-28T09:05:16;8.45;;;5.82;;
34491;SDS011;20737;49.908;8.126;2022-10-28T09:07:46;14.35;;;5.80;;
34491;SDS011;20737;49.908;8.126;2022-10-28T09:10:13;9.15;;;5.60;;
34491;SDS011;20737;49.908;8.126;2022-10-28T09:12:43;7.22;;;6.10;;
34491;SDS011;20737;49.908;8.126;2022-10-28T09:17:51;10.30;;;5.73;;
34491;SDS011;20737;49.908;8.126;2022-10-28T09:20:23;7.47;;;5.63;;
34491;SDS011;20737;49.908;8.126;2022-10-28T09:22:55;8.48;;;5.63;;
34491;SDS011;20737;49.908;8.126;2022-10-28T09:25:25;11.05;;;6.05;;
34491;SDS011;20737;49.908;8.126;2022-10-28T09:30:47;10.38;;;5.75;;
34491;SDS011;20737;49.908;8.126;2022-10-28T09:33:27;7.07;;;5.40;;
34491;SDS011;20737;49.908;8.126;2022-10-28T09:36:08;9.60;;;4.97;;
34491;SDS011;20737;49.908;8.126;2022-10-28T09:38:40;6.32;;;5.50;;
34491;SDS011;20737;49.908;8.126;2022-10-28T09:41:09;9.73;;;4.78;;
34491;SDS011;20737;49.908;8.126;2022-10-28T09:43:41;9.60;;;5.17;;
34491;SDS011;20737;49.908;8.126;2022-10-28T09:46:13;8.75;;;5.38;;
34491;SDS011;20737;49.908;8.126;2022-10-28T09:48:42;7.97;;;4.97;;
34491;SDS011;20737;49.908;8.126;2022-10-28T09:51:16;11.75;;;5.38;;
34491;SDS011;20737;49.908;8.126;2022-10-28T09:53:51;9.77;;;5.30;;
34491;SDS011;20737;49.908;8.126;2022-10-28T09:56:21;9.00;;;4.85;;
34491;SDS011;20737;49.908;8.126;2022-10-28T09:58:48;7.95;;;5.20;;
34491;SDS011;20737;49.908;8.126;2022-10-28T10:01:15;10.05;;;5.28;;
34491;SDS011;20737;49.908;8.126;2022-10-28T10:03:43;7.60;;;4.70;;
34491;SDS011;20737;49.908;8.126;2022-10-28T10:06:16;10.35;;;5.05;;
34491;SDS011;20737;49.908;8.126;2022-10-28T10:08:45;7.38;;;4.60;;
34491;SDS011;20737;49.908;8.126;2022-10-28T10:11:13;9.25;;;4.30;;
34491;SDS011;20737;49.908;8.126;2022-10-28T10:13:49;9.40;;;4.90;;
34491;SDS011;20737;49.908;8.126;2022-10-28T10:16:20;7.78;;;5.28;;
34491;SDS011;20737;49.908;8.126;2022-10-28T10:18:52;8.07;;;4.97;;
34491;SDS011;20737;49.908;8.126;2022-10-28T10:21:38;6.90;;;4.55;;
34491;SDS011;20737;49.908;8.126;2022-10-28T10:24:20;11.82;;;4.75;;
34491;SDS011;20737;49.908;8.126;2022-10-28T10:26:51;9.23;;;4.43;;
34491;SDS011;20737;49.908;8.126;2022-10-28T10:29:18;9.95;;;4.22;;
34491;SDS011;20737;49.908;8.126;2022-10-28T10:31:46;9.40;;;4.60;;
34491;SDS011;20737;49.908;8.126;2022-10-28T10:34:20;9.13;;;4.80;;
34491;SDS011;20737;49.908;8.126;2022-10-28T10:36:49;8.65;;;4.55;;
34491;SDS011;20737;49.908;8.126;2022-10-28T10:39:19;8.55;;;4.35;;
34491;SDS011;20737;49.908;8.126;2022-10-28T10:41:50;9.45;;;4.60;;
34491;SDS011;20737;49.908;8.126;2022-10-28T10:44:30;12.15;;;4.95;;
34491;SDS011;20737;49.908;8.126;2022-10-28T10:52:48;9.10;;;4.43;;
34491;SDS011;20737;49.908;8.126;2022-10-28T10:58:04;7.70;;;3.95;;
34491;SDS011;20737;49.908;8.126;2022-10-28T11:00:35;8.27;;;4.38;;
34491;SDS011;20737;49.908;8.126;2022-10-28T11:03:03;11.02;;;4.53;;
34491;SDS011;20737;49.908;8.126;2022-10-28T11:05:32;7.70;;;4.60;;
34491;SDS011;20737;49.908;8.126;2022-10-28T11:08:00;7.97;;;4.50;;
34491;SDS011;20737;49.908;8.126;2022-10-28T11:10:30;10.82;;;4.32;;
34491;SDS011;20737;49.908;8.126;2022-10-28T11:13:00;7.78;;;4.63;;
34491;SDS011;20737;49.908;8.126;2022-10-28T11:15:29;9.93;;;4.57;;
34491;SDS011;20737;49.908;8.126;2022-10-28T11:17:58;6.55;;;4.28;;
34491;SDS011;20737;49.908;8.126;2022-10-28T11:20:27;9.77;;;4.90;;
34491;SDS011;20737;49.908;8.126;2022-10-28T11:23:13;11.00;;;4.30;;
34491;SDS011;20737;49.908;8.126;2022-10-28T11:25:51;10.65;;;4.43;;
34491;SDS011;20737;49.908;8.126;2022-10-28T11:28:27;10.93;;;4.18;;
34491;SDS011;20737;49.908;8.126;2022-10-28T11:31:17;7.05;;;3.70;;
34491;SDS011;20737;49.908;8.126;2022-10-28T11:34:01;8.75;;;4.10;;
34491;SDS011;20737;49.908;8.126;2022-10-28T11:36:42;12.40;;;4.10;;
34491;SDS011;20737;49.908;8.126;2022-10-28T11:39:22;9.95;;;4.03;;
34491;SDS011;20737;49.908;8.126;2022-10-28T11:41:59;14.70;;;4.43;;
34491;SDS011;20737;49.908;8.126;2022-10-28T11:44:42;7.50;;;3.67;;
34491;SDS011;20737;49.908;8.126;2022-10-28T11:47:17;9.75;;;3.78;;
34491;SDS011;20737;49.908;8.126;2022-10-28T11:50:02;9.50;;;3.55;;
34491;SDS011;20737;49.908;8.126;2022-10-28T11:52:54;10.38;;;3.88;;
34491;SDS011;20737;49.908;8.126;2022-10-28T11:55:33;9.57;;;3.50;;
34491;SDS011;20737;49.908;8.126;2022-10-28T11:58:06;13.27;;;3.85;;
34491;SDS011;20737;49.908;8.126;2022-10-28T12:00:42;13.35;;;3.83;;
34491;SDS011;20737;49.908;8.126;2022-10-28T12:03:38;7.10;;;3.67;;
34491;SDS011;20737;49.908;8.126;2022-10-28T12:06:19;8.98;;;3.72;;
34491;SDS011;20737;49.908;8.126;2022-10-28T12:08:54;8.48;;;3.60;;
34491;SDS011;20737;49.908;8.126;2022-10-28T12:11:38;9.40;;;3.60;;
34491;SDS011;20737;49.908;8.126;2022-10-28T12:14:18;9.93;;;4.05;;
34491;SDS011;20737;49.908;8.126;2022-10-28T12:16:54;9.85;;;3.85;;
34491;SDS011;20737;49.908;8.126;2022-10-28T12:19:28;11.35;;;4.38;;
34491;SDS011;20737;49.908;8.126;2022-10-28T12:22:03;10.63;;;3.85;;
34491;SDS011;20737;49.908;8.126;2022-10-28T12:24:34;9.40;;;3.72;;
34491;SDS011;20737;49.908;8.126;2022-10-28T12:27:08;5.90;;;3.60;;
34491;SDS011;20737;49.908;8.126;2022-10-28T12:29:40;10.27;;;3.75;;
34491;SDS011;20737;49.908;8.126;2022-10-28T12:32:09;8.13;;;3.50;;
34491;SDS011;20737;49.908;8.126;2022-10-28T12:34:39;9.93;;;3.15;;
34491;SDS011;20737;49.908;8.126;2022-10-28T12:37:09;10.35;;;3.90;;
34491;SDS011;20737;49.908;8.126;2022-10-28T12:39:40;8.18;;;3.63;;
34491;SDS011;20737;49.908;8.126;2022-10-28T12:42:13;7.32;;;3.40;;
34491;SDS011;20737;49.908;8.126;2022-10-28T12:44:45;8.90;;;3.92;;
34491;SDS011;20737;49.908;8.126;2022-10-28T12:47:15;7.13;;;3.45;;
34491;SDS011;20737;49.908;8.126;2022-10-28T12:49:49;6.28;;;3.63;;
34491;SDS011;20737;49.908;8.126;2022-10-28T12:52:29;11.77;;;3.90;;
34491;SDS011;20737;49.908;8.126;2022-10-28T12:55:02;9.90;;;4.07;;
34491;SDS011;20737;49.908;8.126;2022-10-28T12:57:46;8.60;;;3.72;;
34491;SDS011;20737;49.908;8.126;2022-10-28T13:00:19;7.80;;;3.40;;
34491;SDS011;20737;49.908;8.126;2022-10-28T13:02:50;9.00;;;3.53;;
34491;SDS011;20737;49.908;8.126;2022-10-28T13:05:20;5.93;;;3.60;;
34491;SDS011;20737;49.908;8.126;2022-10-28T13:07:53;14.15;;;3.97;;
34491;SDS011;20737;49.908;8.126;2022-10-28T13:10:36;7.57;;;3.15;;
34491;SDS011;20737;49.908;8.126;2022-10-28T13:16:15;11.27;;;3.92;;
34491;SDS011;20737;49.908;8.126;2022-10-28T13:22:13;7.80;;;3.67;;
34491;SDS011;20737;49.908;8.126;2022-10-28T13:24:52;13.15;;;4.15;;
34491;SDS011;20737;49.908;8.126;2022-10-28T13:27:23;6.60;;;3.30;;
34491;SDS011;20737;49.908;8.126;2022-10-28T13:29:53;8.95;;;3.53;;
34491;SDS011;20737;49.908;8.126;2022-10-28T13:32:25;9.80;;;3.60;;
34491;SDS011;20737;49.908;8.126;2022-10-28T13:34:59;10.52;;;3.65;;
34491;SDS011;20737;49.908;8.126;2022-10-28T13:37:32;7.72;;;3.47;;
34491;SDS011;20737;49.908;8.126;2022-10-28T13:40:02;7.20;;;3.15;;
34491;SDS011;20737;49.908;8.126;2022-10-28T13:42:30;10.23;;;3.70;;
34491;SDS011;20737;49.908;8.126;2022-10-28T13:53:56;8.05;;;3.58;;
34491;SDS011;20737;49.908;8.126;2022-10-28T13:56:26;7.78;;;3.92;;
34491;SDS011;20737;49.908;8.126;2022-10-28T13:59:20;9.60;;;3.90;;
34491;SDS011;20737;49.908;8.126;2022-10-28T14:02:03;6.65;;;3.78;;
34491;SDS011;20737;49.908;8.126;2022-10-28T14:04:43;11.35;;;4.00;;
34491;SDS011;20737;49.908;8.126;2022-10-28T14:07:21;9.68;;;4.13;;
34491;SDS011;20737;49.908;8.126;2022-10-28T14:09:52;7.38;;;3.22;;
34491;SDS011;20737;49.908;8.126;2022-10-28T14:12:29;8.63;;;3.22;;
34491;SDS011;20737;49.908;8.126;2022-10-28T14:14:58;10.88;;;4.10;;
34491;SDS011;20737;49.908;8.126;2022-10-28T14:17:32;8.23;;;3.60;;
34491;SDS011;20737;49.908;8.126;2022-10-28T14:20:03;10.75;;;4.55;;
34491;SDS011;20737;49.908;8.126;2022-10-28T14:22:33;12.52;;;3.78;;
34491;SDS011;20737;49.908;8.126;2022-10-28T14:25:01;9.55;;;3.60;;
34491;SDS011;20737;49.908;8.126;2022-10-28T14:27:50;7.80;;;3.55;;
34491;SDS011;20737;49.908;8.126;2022-10-28T14:30:18;8.32;;;4.00;;
34491;SDS011;20737;49.908;8.126;2022-10-28T14:32:56;12.90;;;3.90;;
34491;SDS011;20737;49.908;8.126;2022-10-28T14:35:38;10.68;;;3.58;;
34491;SDS011;20737;49.908;8.126;2022-10-28T14:38:14;14.40;;;3.65;;
34491;SDS011;20737;49.908;8.126;2022-10-28T14:40:53;11.05;;;4.10;;
34491;SDS011;20737;49.908;8.126;2022-10-28T14:43:38;10.80;;;3.92;;
34491;SDS011;20737;49.908;8.126;2022-10-28T14:46:23;9.55;;;3.75;;
34491;SDS011;20737;49.908;8.126;2022-10-28T14:49:03;9.77;;;3.53;;
34491;SDS011;20737;49.908;8.126;2022-10-28T14:51:42;7.05;;;3.80;;
34491;SDS011;20737;49.908;8.126;2022-10-28T14:54:12;6.97;;;3.60;;
34491;SDS011;20737;49.908;8.126;2022-10-28T14:56:41;9.68;;;4.18;;
34491;SDS011;20737;49.908;8.126;2022-10-28T14:59:20;17.60;;;6.13;;
34491;SDS011;20737;49.908;8.126;2022-10-28T15:01:54;16.80;;;4.97;;
34491;SDS011;20737;49.908;8.126;2022-10-28T15:04:25;7.82;;;3.80;;
34491;SDS011;20737;49.908;8.126;2022-10-28T15:06:54;13.35;;;4.28;;
34491;SDS011;20737;49.908;8.126;2022-10-28T15:09:22;6.65;;;3.42;;
34491;SDS011;20737;49.908;8.126;2022-10-28T15:11:51;9.35;;;3.63;;
34491;SDS011;20737;49.908;8.126;2022-10-28T15:14:26;9.52;;;3.75;;
34491;SDS011;20737;49.908;8.126;2022-10-28T15:16:58;8.13;;;3.60;;
34491;SDS011;20737;49.908;8.126;2022-10-28T15:19:34;8.70;;;3.75;;
34491;SDS011;20737;49.908;8.126;2022-10-28T15:22:09;8.02;;;4.05;;
34491;SDS011;20737;49.908;8.126;2022-10-28T15:24:38;9.38;;;4.45;;
34491;SDS011;20737;49.908;8.126;2022-10-28T15:27:05;9.27;;;3.70;;
34491;SDS011;20737;49.908;8.126;2022-10-28T15:29:36;7.82;;;3.60;;
34491;SDS011;20737;49.908;8.126;2022-10-28T15:32:12;10.38;;;4.15;;